Dahinda, Illinois
Current Conditions -  °F | °C
As of 10:15 AM on Saturday 25 Oct 2014 (Local Time) from KGBG Reporting Station
Clear Clear  
Wind Chill: 57°   Ceiling: Unl
Heat Index: 57°   Visibility: 10mi
Dew Point: 54°   Wind: 6mph
Humidity: 90%   Direction: 310°NW
Pressure: 30.03"   Gusts: NA
Location:  40.92°N, 90.11°W
Report Text: KGBG 251515Z AUTO 31005KT 10SM CLR 14/12 A3003 RMK AO2 T01400124
Loading
Personal Weather Stations






























Interactive Weather Map
Tropical Storm Tracking
New forecast layout! Learn more

10-Day Weather Forecast

Advertisements
Track Severe Weather on mobile